Time;durP1;ratioP1;P1;durP2;ratioP2;P2;SDS_P1;SDS_P2;PMS_P1;PMS_P2;Temp;Humidity;BMP_temperature;BMP_pressure;BME280_temperature;BME280_humidity;BME280_pressure;Samples;Min_cycle;Max_cycle;Signal;HPM_P1;HPM_P2
2022/02/17 00:02:07;;;;;;;74.97;49.30;;;;;;;;;;5056915;28;20025;-85
2022/02/17 00:07:56;;;;;;;74.93;47.83;;;;;;;;;;5058043;28;20104;-86
2022/02/17 00:10:26;;;;;;;75.65;48.33;;;;;;;;;;5057587;28;20067;-86
2022/02/17 00:12:53;;;;;;;74.68;48.90;;;;;;;;;;5058246;28;20029;-86
2022/02/17 00:15:19;;;;;;;73.05;45.47;;;;;;;;;;5057837;28;20104;-86
2022/02/17 00:17:45;;;;;;;73.82;46.33;;;;;;;;;;5057591;28;20024;-85
2022/02/17 00:20:11;;;;;;;73.90;46.85;;;;;;;;;;5057388;28;20482;-85
2022/02/17 00:22:38;;;;;;;69.03;45.28;;;;;;;;;;5057092;28;20312;-86
2022/02/17 00:25:04;;;;;;;69.38;44.75;;;;;;;;;;5056567;28;20035;-86
2022/02/17 00:27:31;;;;;;;68.93;45.15;;;;;;;;;;5057783;28;20029;-85
2022/02/17 00:29:57;;;;;;;71.95;47.33;;;;;;;;;;5057714;28;20025;-85
2022/02/17 00:32:23;;;;;;;76.15;48.50;;;;;;;;;;5057565;28;20421;-85
2022/02/17 00:34:49;;;;;;;73.57;46.72;;;;;;;;;;5057869;28;20443;-88
2022/02/17 00:37:15;;;;;;;80.22;50.22;;;;;;;;;;5057563;28;20098;-88
2022/02/17 00:39:41;;;;;;;91.43;51.60;;;;;;;;;;5056707;28;20327;-87
2022/02/17 00:42:07;;;;;;;85.72;48.75;;;;;;;;;;5057548;28;20306;-85
2022/02/17 00:44:33;;;;;;;86.68;48.58;;;;;;;;;;5039930;28;20029;-85
2022/02/17 00:47:00;;;;;;;85.70;48.55;;;;;;;;;;5057471;28;20025;-85
2022/02/17 00:49:28;;;;;;;85.95;48.35;;;;;;;;;;5057528;28;20017;-85
2022/02/17 00:51:54;;;;;;;79.03;45.78;;;;;;;;;;5061374;28;20033;-84
2022/02/17 00:54:20;;;;;;;80.53;45.58;;;;;;;;;;5060649;28;20067;-85
2022/02/17 00:56:46;;;;;;;83.45;45.97;;;;;;;;;;5061618;28;20052;-84
2022/02/17 00:59:12;;;;;;;76.90;45.55;;;;;;;;;;5061268;28;20021;-85
2022/02/17 01:01:39;;;;;;;74.63;43.50;;;;;;;;;;5061283;28;20021;-85
2022/02/17 01:04:05;;;;;;;74.78;43.05;;;;;;;;;;5061543;28;20025;-85
2022/02/17 01:06:31;;;;;;;68.53;41.67;;;;;;;;;;5061140;28;20426;-85
2022/02/17 01:08:57;;;;;;;67.95;41.33;;;;;;;;;;5060941;28;20041;-85
2022/02/17 01:11:23;;;;;;;67.97;41.83;;;;;;;;;;5061238;28;20487;-85
2022/02/17 01:13:50;;;;;;;64.32;41.58;;;;;;;;;;5061076;28;20403;-85
2022/02/17 01:16:16;;;;;;;67.20;41.45;;;;;;;;;;5060936;28;20036;-85
2022/02/17 01:18:42;;;;;;;64.85;41.05;;;;;;;;;;5060844;28;20482;-85
2022/02/17 01:21:08;;;;;;;67.10;40.72;;;;;;;;;;5060862;28;20033;-85
2022/02/17 01:23:34;;;;;;;61.33;39.85;;;;;;;;;;5060809;28;20043;-85
2022/02/17 01:26:00;;;;;;;68.50;41.90;;;;;;;;;;5060997;28;20025;-84
2022/02/17 01:28:27;;;;;;;58.88;38.95;;;;;;;;;;5060765;28;20315;-85
2022/02/17 01:30:53;;;;;;;67.65;40.63;;;;;;;;;;5059766;28;20040;-85
2022/02/17 01:33:19;;;;;;;65.35;40.88;;;;;;;;;;5060748;28;20025;-85
2022/02/17 01:35:45;;;;;;;61.78;40.05;;;;;;;;;;5060680;28;20021;-88
2022/02/17 01:38:11;;;;;;;63.63;39.78;;;;;;;;;;5060609;28;20060;-88
2022/02/17 01:40:37;;;;;;;67.68;40.47;;;;;;;;;;5060540;28;20029;-88
2022/02/17 01:43:03;;;;;;;64.38;39.40;;;;;;;;;;5059729;28;20024;-88
2022/02/17 01:45:29;;;;;;;66.85;40.67;;;;;;;;;;5060956;28;20025;-88
2022/02/17 01:47:55;;;;;;;68.20;41.15;;;;;;;;;;5060541;28;20028;-88
2022/02/17 01:50:41;;;;;;;69.50;41.47;;;;;;;;;;5060604;28;20023;-87
2022/02/17 01:53:11;;;;;;;68.35;41.47;;;;;;;;;;5060704;28;20100;-87
2022/02/17 01:55:38;;;;;;;69.90;42.65;;;;;;;;;;5059444;28;20028;-88
2022/02/17 01:58:04;;;;;;;67.57;41.90;;;;;;;;;;5060578;28;20021;-85
2022/02/17 02:00:31;;;;;;;74.45;44.33;;;;;;;;;;5060241;28;20112;-85
2022/02/17 02:02:57;;;;;;;69.47;41.83;;;;;;;;;;5060504;28;20020;-86
2022/02/17 02:05:24;;;;;;;64.28;40.92;;;;;;;;;;5060433;28;20045;-85
2022/02/17 02:07:50;;;;;;;60.95;38.80;;;;;;;;;;5060087;28;20067;-86
2022/02/17 02:10:16;;;;;;;60.63;37.25;;;;;;;;;;5059980;28;20338;-86
2022/02/17 02:12:42;;;;;;;53.53;33.97;;;;;;;;;;5060348;28;20029;-86
2022/02/17 02:15:08;;;;;;;50.75;31.92;;;;;;;;;;5058983;28;20033;-85
2022/02/17 02:17:34;;;;;;;52.10;33.08;;;;;;;;;;5060351;28;20442;-85
2022/02/17 02:20:19;;;;;;;47.10;31.58;;;;;;;;;;5059779;28;20446;-86
2022/02/17 02:22:46;;;;;;;44.53;30.40;;;;;;;;;;5059713;28;20399;-85
2022/02/17 02:25:12;;;;;;;51.42;31.48;;;;;;;;;;5059991;28;20064;-86
2022/02/17 02:27:38;;;;;;;45.75;31.17;;;;;;;;;;5060014;28;20037;-87
2022/02/17 02:30:05;;;;;;;50.15;33.75;;;;;;;;;;5058666;28;20425;-87
2022/02/17 02:32:32;;;;;;;48.55;31.52;;;;;;;;;;5059804;28;20421;-87
2022/02/17 02:34:58;;;;;;;47.95;32.80;;;;;;;;;;5059553;28;20028;-85
2022/02/17 02:37:24;;;;;;;49.58;33.60;;;;;;;;;;5059503;28;20021;-87
2022/02/17 02:39:50;;;;;;;55.13;36.10;;;;;;;;;;5059795;28;20024;-87
2022/02/17 02:42:16;;;;;;;67.85;42.60;;;;;;;;;;5059738;28;20095;-87
2022/02/17 02:44:43;;;;;;;59.92;40.20;;;;;;;;;;5058838;28;20059;-87
2022/02/17 02:47:09;;;;;;;54.65;36.78;;;;;;;;;;5058642;28;20024;-87
2022/02/17 02:49:38;;;;;;;54.60;35.88;;;;;;;;;;5059940;28;20029;-87
2022/02/17 02:52:05;;;;;;;68.22;41.88;;;;;;;;;;5058594;28;20426;-87
2022/02/17 02:54:31;;;;;;;60.90;37.35;;;;;;;;;;5059504;28;20029;-87
2022/02/17 02:56:57;;;;;;;53.55;34.33;;;;;;;;;;5059470;28;20025;-87
2022/02/17 02:59:23;;;;;;;61.17;36.97;;;;;;;;;;5059500;28;20032;-87
2022/02/17 03:01:49;;;;;;;71.20;44.40;;;;;;;;;;5059431;28;20067;-88
2022/02/17 03:04:15;;;;;;;69.03;42.25;;;;;;;;;;5059463;28;20024;-88
2022/02/17 03:06:41;;;;;;;50.75;33.70;;;;;;;;;;5058161;28;20021;-88
2022/02/17 03:09:08;;;;;;;45.15;31.10;;;;;;;;;;5059350;28;20335;-88
2022/02/17 03:11:34;;;;;;;45.47;30.63;;;;;;;;;;5059292;28;20031;-87
2022/02/17 03:14:01;;;;;;;41.90;29.17;;;;;;;;;;5058755;28;20029;-87
2022/02/17 03:16:30;;;;;;;44.60;28.73;;;;;;;;;;5059201;28;20021;-88
2022/02/17 03:18:57;;;;;;;43.97;29.88;;;;;;;;;;5059155;28;20100;-87
2022/02/17 03:21:23;;;;;;;42.92;30.10;;;;;;;;;;5059018;28;20053;-87
2022/02/17 03:23:49;;;;;;;44.33;29.75;;;;;;;;;;5058789;28;20024;-87
2022/02/17 03:26:15;;;;;;;46.55;29.35;;;;;;;;;;5058700;28;20017;-86
2022/02/17 03:28:41;;;;;;;43.05;28.67;;;;;;;;;;5058707;28;20021;-86
2022/02/17 03:31:07;;;;;;;44.15;27.58;;;;;;;;;;5058635;28;20025;-86
2022/02/17 03:33:33;;;;;;;43.85;28.55;;;;;;;;;;5058450;28;20117;-87
2022/02/17 03:35:59;;;;;;;41.63;26.80;;;;;;;;;;5057558;28;20032;-86
2022/02/17 03:38:25;;;;;;;42.33;28.33;;;;;;;;;;5058436;28;20033;-87
2022/02/17 03:40:52;;;;;;;47.75;30.27;;;;;;;;;;5058471;28;20052;-87
2022/02/17 03:43:18;;;;;;;51.72;31.65;;;;;;;;;;5058290;28;20025;-89
2022/02/17 03:45:44;;;;;;;54.40;30.58;;;;;;;;;;5058555;28;20096;-87
2022/02/17 03:48:10;;;;;;;54.60;33.40;;;;;;;;;;5057211;28;20526;-88
2022/02/17 03:50:36;;;;;;;57.63;34.63;;;;;;;;;;5058348;28;20334;-87
2022/02/17 03:53:02;;;;;;;55.65;32.50;;;;;;;;;;5058438;28;20045;-87
2022/02/17 03:55:28;;;;;;;53.33;33.65;;;;;;;;;;5058325;28;20037;-86
2022/02/17 03:57:54;;;;;;;53.50;33.13;;;;;;;;;;5058397;28;20031;-86
2022/02/17 04:00:20;;;;;;;46.03;30.77;;;;;;;;;;5058190;28;20037;-86
2022/02/17 04:02:47;;;;;;;52.15;32.30;;;;;;;;;;5058332;28;20314;-87
2022/02/17 04:05:13;;;;;;;57.28;32.40;;;;;;;;;;5058304;28;20017;-86
2022/02/17 04:07:40;;;;;;;58.88;33.42;;;;;;;;;;5058154;28;20060;-88
2022/02/17 04:10:06;;;;;;;54.13;30.98;;;;;;;;;;5057628;28;20041;-88
2022/02/17 04:12:32;;;;;;;40.78;27.45;;;;;;;;;;5057822;28;20117;-87
2022/02/17 04:14:58;;;;;;;38.53;26.67;;;;;;;;;;5057795;28;20020;-86
2022/02/17 04:17:24;;;;;;;41.38;27.88;;;;;;;;;;5057753;28;20025;-85
2022/02/17 04:22:54;;;;;;;37.88;26.23;;;;;;;;;;5058048;28;20083;-87
2022/02/17 04:25:20;;;;;;;36.83;25.45;;;;;;;;;;5056885;28;20047;-87
2022/02/17 04:27:46;;;;;;;42.17;26.83;;;;;;;;;;5056656;28;20036;-86
2022/02/17 04:30:12;;;;;;;46.65;30.52;;;;;;;;;;5057653;28;20017;-85
2022/02/17 04:32:38;;;;;;;41.80;28.15;;;;;;;;;;5057960;28;20025;-86
2022/02/17 04:35:04;;;;;;;39.63;25.75;;;;;;;;;;5056664;28;20123;-86
2022/02/17 04:37:30;;;;;;;42.35;28.10;;;;;;;;;;5057608;28;20037;-85
2022/02/17 04:40:00;;;;;;;52.55;30.85;;;;;;;;;;5056616;28;20126;-86
2022/02/17 04:42:26;;;;;;;48.78;30.02;;;;;;;;;;5057392;28;20415;-86
2022/02/17 04:44:53;;;;;;;46.15;29.08;;;;;;;;;;5057723;28;20315;-86
2022/02/17 04:47:19;;;;;;;36.40;25.27;;;;;;;;;;5057759;28;20097;-86
2022/02/17 04:49:45;;;;;;;34.80;24.83;;;;;;;;;;5057524;28;20032;-87
2022/02/17 04:52:11;;;;;;;34.65;24.13;;;;;;;;;;5057891;28;20037;-87
2022/02/17 04:54:38;;;;;;;34.55;23.80;;;;;;;;;;5056522;28;20457;-87
2022/02/17 04:57:04;;;;;;;34.10;23.17;;;;;;;;;;5057670;28;20079;-88
2022/02/17 04:59:30;;;;;;;32.28;23.08;;;;;;;;;;5057428;28;20028;-87
2022/02/17 05:01:56;;;;;;;36.88;24.55;;;;;;;;;;5056281;28;20468;-87
2022/02/17 05:04:23;;;;;;;39.47;24.73;;;;;;;;;;5056232;28;20028;-87
2022/02/17 05:06:49;;;;;;;37.55;24.98;;;;;;;;;;5057452;28;20025;-86
2022/02/17 05:09:15;;;;;;;34.38;24.08;;;;;;;;;;5056904;28;20075;-86
2022/02/17 05:11:41;;;;;;;35.75;24.13;;;;;;;;;;5057531;28;20025;-86
2022/02/17 05:14:07;;;;;;;35.88;24.75;;;;;;;;;;5057316;28;20029;-86
2022/02/17 05:16:33;;;;;;;34.22;24.02;;;;;;;;;;5057209;28;20130;-88
2022/02/17 05:18:59;;;;;;;45.55;26.33;;;;;;;;;;5057250;28;20029;-87
2022/02/17 05:21:25;;;;;;;44.50;27.08;;;;;;;;;;5057133;28;20021;-87
2022/02/17 05:23:51;;;;;;;46.00;27.35;;;;;;;;;;5057143;28;20064;-87
2022/02/17 05:26:17;;;;;;;35.47;23.65;;;;;;;;;;5057568;28;20081;-86
2022/02/17 05:28:43;;;;;;;44.65;27.67;;;;;;;;;;5056182;28;20128;-86
2022/02/17 05:31:11;;;;;;;43.55;28.55;;;;;;;;;;5057024;28;20403;-87
2022/02/17 05:33:37;;;;;;;43.50;26.98;;;;;;;;;;5057298;28;20025;-86
2022/02/17 05:36:03;;;;;;;44.63;27.77;;;;;;;;;;5058128;28;20025;-86
2022/02/17 05:38:29;;;;;;;41.92;27.20;;;;;;;;;;5059643;28;20029;-86
2022/02/17 05:40:55;;;;;;;40.25;27.25;;;;;;;;;;5060685;28;20032;-87
2022/02/17 05:43:21;;;;;;;43.90;27.33;;;;;;;;;;5060763;28;20168;-87
2022/02/17 05:45:47;;;;;;;41.33;27.58;;;;;;;;;;5059943;28;20031;-86
2022/02/17 05:48:13;;;;;;;41.13;27.10;;;;;;;;;;5060808;28;20045;-86
2022/02/17 05:50:57;;;;;;;38.63;26.75;;;;;;;;;;5059486;28;20029;-86
2022/02/17 05:53:23;;;;;;;46.95;29.27;;;;;;;;;;5060691;28;20032;-86
2022/02/17 05:55:50;;;;;;;41.78;27.30;;;;;;;;;;5060649;28;20071;-86
2022/02/17 05:58:16;;;;;;;40.65;27.25;;;;;;;;;;5068297;28;20028;-86
2022/02/17 06:00:42;;;;;;;40.75;27.80;;;;;;;;;;5071274;28;20021;-86
2022/02/17 06:03:08;;;;;;;46.15;29.27;;;;;;;;;;5058577;28;20060;-86
2022/02/17 06:05:34;;;;;;;47.08;32.10;;;;;;;;;;5060644;28;20060;-86
2022/02/17 06:08:00;;;;;;;55.38;37.67;;;;;;;;;;5071726;28;20029;-87
2022/02/17 06:10:26;;;;;;;53.20;35.30;;;;;;;;;;5079204;28;20495;-86
2022/02/17 06:12:52;;;;;;;70.70;43.70;;;;;;;;;;5076350;28;20066;-86
2022/02/17 06:15:19;;;;;;;57.55;35.17;;;;;;;;;;5079148;28;20116;-85
2022/02/17 06:17:45;;;;;;;82.43;44.55;;;;;;;;;;5059033;28;20063;-86
2022/02/17 06:23:15;;;;;;;97.60;52.55;;;;;;;;;;5059816;28;20108;-86
2022/02/17 06:25:41;;;;;;;211.52;122.32;;;;;;;;;;5060335;28;20334;-87
2022/02/17 06:28:07;;;;;;;210.77;119.00;;;;;;;;;;5060204;28;20025;-85
2022/02/17 06:30:33;;;;;;;179.85;106.28;;;;;;;;;;5059737;28;20040;-87
2022/02/17 06:32:59;;;;;;;97.55;58.53;;;;;;;;;;5060049;28;20048;-87
2022/02/17 06:35:32;;;;;;;89.03;52.75;;;;;;;;;;5058737;28;20490;-86
2022/02/17 06:37:59;;;;;;;75.90;43.38;;;;;;;;;;5059550;28;20488;-85
2022/02/17 06:40:26;;;;;;;64.03;38.10;;;;;;;;;;5059410;28;20025;-86
2022/02/17 06:42:52;;;;;;;55.22;36.15;;;;;;;;;;5058525;28;20068;-88
2022/02/17 06:45:18;;;;;;;43.53;27.33;;;;;;;;;;5059041;28;20025;-88
2022/02/17 06:47:45;;;;;;;34.72;24.90;;;;;;;;;;5058262;28;20051;-88
2022/02/17 06:50:29;;;;;;;39.75;26.45;;;;;;;;;;5059660;28;20360;-87
2022/02/17 06:52:55;;;;;;;61.70;29.58;;;;;;;;;;5059355;28;20059;-87
2022/02/17 06:55:21;;;;;;;98.25;36.28;;;;;;;;;;5058423;28;20400;-87
2022/02/17 06:57:47;;;;;;;79.28;32.20;;;;;;;;;;5059541;28;20365;-87
2022/02/17 07:00:14;;;;;;;155.27;49.67;;;;;;;;;;5059526;28;20029;-86
2022/02/17 07:02:40;;;;;;;159.52;51.80;;;;;;;;;;5059186;28;20411;-86
2022/02/17 07:05:07;;;;;;;102.57;41.45;;;;;;;;;;5059508;28;20041;-87
2022/02/17 07:07:35;;;;;;;85.32;41.15;;;;;;;;;;5057737;28;20040;-86
2022/02/17 07:10:01;;;;;;;49.90;33.00;;;;;;;;;;5058858;28;20045;-86
2022/02/17 07:12:27;;;;;;;53.05;28.77;;;;;;;;;;5059006;28;20033;-87
2022/02/17 07:14:56;;;;;;;65.22;30.00;;;;;;;;;;5059261;28;20357;-87
2022/02/17 07:17:23;;;;;;;65.85;31.90;;;;;;;;;;5058878;28;20033;-87
2022/02/17 07:22:52;;;;;;;42.47;27.38;;;;;;;;;;5059233;28;20036;-85
2022/02/17 07:25:18;;;;;;;36.63;26.75;;;;;;;;;;5059142;28;20119;-87
2022/02/17 07:27:44;;;;;;;40.63;27.65;;;;;;;;;;5058728;28;20113;-86
2022/02/17 07:30:10;;;;;;;38.72;26.80;;;;;;;;;;5058653;28;20032;-93
2022/02/17 07:32:40;;;;;;;44.55;28.73;;;;;;;;;;5041629;28;20407;-86
2022/02/17 07:35:06;;;;;;;44.70;27.58;;;;;;;;;;5058536;28;20407;-86
2022/02/17 07:37:32;;;;;;;44.35;29.15;;;;;;;;;;5058868;28;20029;-87
2022/02/17 07:39:59;;;;;;;47.17;29.55;;;;;;;;;;5057514;28;20116;-85
2022/02/17 07:42:25;;;;;;;44.10;28.75;;;;;;;;;;5057372;28;20025;-85
2022/02/17 07:44:56;;;;;;;42.08;28.52;;;;;;;;;;5058264;28;20057;-85
2022/02/17 07:47:23;;;;;;;38.08;25.92;;;;;;;;;;5057989;28;20025;-83
2022/02/17 07:49:49;;;;;;;40.05;27.00;;;;;;;;;;5057850;28;20048;-85
2022/02/17 07:52:16;;;;;;;38.55;25.13;;;;;;;;;;5058044;28;20445;-84
2022/02/17 07:54:42;;;;;;;38.80;25.60;;;;;;;;;;5057868;28;20029;-84
2022/02/17 07:57:08;;;;;;;36.60;24.45;;;;;;;;;;5058083;28;20067;-85
2022/02/17 07:59:34;;;;;;;42.65;26.85;;;;;;;;;;5058038;28;20056;-85
2022/02/17 08:02:00;;;;;;;39.42;25.98;;;;;;;;;;5056861;28;20029;-85
2022/02/17 08:04:26;;;;;;;43.78;25.35;;;;;;;;;;5057918;28;20017;-84
2022/02/17 08:06:52;;;;;;;43.58;24.95;;;;;;;;;;5057904;28;20119;-84
2022/02/17 08:09:18;;;;;;;35.53;23.08;;;;;;;;;;5057766;28;20045;-84
2022/02/17 08:11:44;;;;;;;31.73;20.65;;;;;;;;;;5056618;28;20379;-84
2022/02/17 08:14:10;;;;;;;36.40;23.45;;;;;;;;;;5057381;28;20032;-84
2022/02/17 08:16:37;;;;;;;36.35;21.30;;;;;;;;;;5057250;28;20025;-84
2022/02/17 08:19:05;;;;;;;37.80;22.50;;;;;;;;;;5057508;28;20028;-84
2022/02/17 08:21:31;;;;;;;38.88;22.23;;;;;;;;;;5057381;28;20098;-84
2022/02/17 08:23:57;;;;;;;47.97;27.45;;;;;;;;;;5057833;28;20024;-84
2022/02/17 08:26:23;;;;;;;43.00;25.75;;;;;;;;;;5056078;28;20098;-84
2022/02/17 08:28:55;;;;;;;40.22;21.85;;;;;;;;;;5057344;28;20059;-84
2022/02/17 08:31:22;;;;;;;38.70;24.50;;;;;;;;;;5057488;28;20361;-84
2022/02/17 08:33:48;;;;;;;38.88;24.67;;;;;;;;;;5057264;28;20033;-83
2022/02/17 08:36:14;;;;;;;43.45;24.60;;;;;;;;;;5057406;28;20071;-83
2022/02/17 08:38:41;;;;;;;41.65;24.95;;;;;;;;;;5057667;28;20339;-84
2022/02/17 08:41:08;;;;;;;40.85;25.50;;;;;;;;;;5057107;28;20065;-84
2022/02/17 08:43:34;;;;;;;43.15;24.65;;;;;;;;;;5057124;28;20023;-84
2022/02/17 08:46:01;;;;;;;46.63;26.67;;;;;;;;;;5057244;28;20100;-84
2022/02/17 08:48:27;;;;;;;42.47;25.35;;;;;;;;;;5056941;28;20075;-84
2022/02/17 08:50:54;;;;;;;62.00;32.67;;;;;;;;;;5057197;28;20029;-84
2022/02/17 08:53:20;;;;;;;78.05;40.53;;;;;;;;;;5061894;28;20032;-83
2022/02/17 08:55:46;;;;;;;83.97;41.17;;;;;;;;;;5076994;28;20032;-84
2022/02/17 08:58:12;;;;;;;65.80;35.38;;;;;;;;;;5075904;28;20033;-84
2022/02/17 09:00:39;;;;;;;73.28;37.50;;;;;;;;;;5076150;28;20024;-85
2022/02/17 09:03:11;;;;;;;57.20;31.98;;;;;;;;;;5076130;28;20032;-84
2022/02/17 09:05:40;;;;;;;48.95;27.48;;;;;;;;;;5077177;28;20020;-85
2022/02/17 09:08:09;;;;;;;43.92;25.48;;;;;;;;;;5077161;28;20021;-83
2022/02/17 09:10:35;;;;;;;36.40;21.90;;;;;;;;;;5077015;28;20036;-84
2022/02/17 09:13:01;;;;;;;40.65;21.10;;;;;;;;;;5081174;28;20028;-84
2022/02/17 09:15:27;;;;;;;31.80;19.25;;;;;;;;;;5080848;28;20082;-85
2022/02/17 09:17:53;;;;;;;29.73;19.33;;;;;;;;;;5080763;28;20024;-84
2022/02/17 09:20:19;;;;;;;25.48;17.88;;;;;;;;;;5080692;28;20024;-84
2022/02/17 09:22:46;;;;;;;24.23;15.52;;;;;;;;;;5079496;28;20036;-83
2022/02/17 09:25:12;;;;;;;19.83;14.50;;;;;;;;;;5080561;28;20020;-83
2022/02/17 09:27:38;;;;;;;22.95;13.70;;;;;;;;;;5080843;28;20024;-84
2022/02/17 09:30:05;;;;;;;21.00;13.23;;;;;;;;;;5080907;28;20021;-83
2022/02/17 09:32:31;;;;;;;26.00;14.55;;;;;;;;;;5080458;28;20411;-84
2022/02/17 09:34:57;;;;;;;20.15;13.15;;;;;;;;;;5080516;28;20028;-83
2022/02/17 09:37:23;;;;;;;28.05;14.95;;;;;;;;;;5080633;28;20385;-84
2022/02/17 09:39:49;;;;;;;36.97;19.77;;;;;;;;;;5080685;28;20398;-84
2022/02/17 09:42:15;;;;;;;26.35;16.67;;;;;;;;;;5080402;28;20035;-83
2022/02/17 09:44:42;;;;;;;18.92;13.57;;;;;;;;;;5080486;28;20028;-83
2022/02/17 09:47:11;;;;;;;20.27;11.75;;;;;;;;;;5080444;28;20033;-83
2022/02/17 09:49:37;;;;;;;16.10;10.23;;;;;;;;;;5080262;28;20048;-84
2022/02/17 09:52:03;;;;;;;15.07;11.00;;;;;;;;;;5080159;28;20020;-83
2022/02/17 09:54:29;;;;;;;17.10;10.77;;;;;;;;;;5079133;28;20405;-83
2022/02/17 09:56:56;;;;;;;15.80;10.60;;;;;;;;;;5079187;28;20020;-83
2022/02/17 09:59:23;;;;;;;19.85;12.05;;;;;;;;;;5079132;28;20060;-83
2022/02/17 10:01:56;;;;;;;20.35;11.90;;;;;;;;;;5079861;28;20035;-83
2022/02/17 10:04:24;;;;;;;22.70;14.10;;;;;;;;;;5080099;28;20020;-83
2022/02/17 10:06:57;;;;;;;26.17;13.57;;;;;;;;;;5080296;28;20032;-83
2022/02/17 10:09:36;;;;;;;27.98;13.30;;;;;;;;;;5079912;28;20044;-83
2022/02/17 10:12:02;;;;;;;20.70;10.07;;;;;;;;;;5078952;28;20354;-83
2022/02/17 10:14:28;;;;;;;24.35;11.77;;;;;;;;;;5079827;28;20024;-83
2022/02/17 10:17:03;;;;;;;25.45;13.63;;;;;;;;;;5078871;28;20078;-83
2022/02/17 10:19:37;;;;;;;54.30;23.45;;;;;;;;;;5079934;28;20099;-83
2022/02/17 10:22:07;;;;;;;67.10;30.95;;;;;;;;;;5078971;28;20059;-83
2022/02/17 10:24:33;;;;;;;57.95;27.98;;;;;;;;;;5079342;28;20021;-83
2022/02/17 10:27:00;;;;;;;34.03;17.23;;;;;;;;;;5079583;28;20028;-83
2022/02/17 10:29:26;;;;;;;52.08;23.33;;;;;;;;;;5079552;28;20017;-83
2022/02/17 10:32:02;;;;;;;28.70;12.02;;;;;;;;;;5079501;28;20028;-83
2022/02/17 10:34:28;;;;;;;39.40;18.23;;;;;;;;;;5079181;28;20028;-83
2022/02/17 10:36:54;;;;;;;17.60;7.25;;;;;;;;;;5079640;28;20062;-83
2022/02/17 10:39:26;;;;;;;23.20;12.40;;;;;;;;;;5079663;28;20036;-86
2022/02/17 10:41:55;;;;;;;20.25;9.05;;;;;;;;;;5079343;28;20021;-83
2022/02/17 10:44:23;;;;;;;39.03;16.70;;;;;;;;;;5079337;28;20039;-83
2022/02/17 10:46:49;;;;;;;46.13;21.05;;;;;;;;;;5079538;28;20326;-83
2022/02/17 10:49:17;;;;;;;68.32;27.98;;;;;;;;;;5079180;28;20021;-83
2022/02/17 10:51:43;;;;;;;67.47;27.35;;;;;;;;;;5079224;28;20020;-83
2022/02/17 10:54:09;;;;;;;50.30;18.90;;;;;;;;;;5079235;28;20071;-83
2022/02/17 10:56:36;;;;;;;107.28;39.65;;;;;;;;;;5079177;28;20067;-83
2022/02/17 10:59:04;;;;;;;81.78;33.42;;;;;;;;;;5079453;28;20031;-83
2022/02/17 11:01:30;;;;;;;80.60;29.88;;;;;;;;;;5077944;28;20029;-82
2022/02/17 11:03:56;;;;;;;35.75;14.98;;;;;;;;;;5079091;28;20027;-83
2022/02/17 11:06:22;;;;;;;15.90;7.93;;;;;;;;;;5077945;28;20024;-83
2022/02/17 11:08:49;;;;;;;23.45;8.73;;;;;;;;;;5078809;28;20134;-83
2022/02/17 11:11:16;;;;;;;24.80;9.05;;;;;;;;;;5078831;28;20031;-83
2022/02/17 11:13:49;;;;;;;42.78;15.55;;;;;;;;;;5078808;28;20028;-82
2022/02/17 11:16:15;;;;;;;14.98;6.28;;;;;;;;;;5078733;28;20024;-83
2022/02/17 11:18:42;;;;;;;78.47;24.58;;;;;;;;;;5078910;28;20032;-83
2022/02/17 11:21:14;;;;;;;39.70;13.65;;;;;;;;;;5077503;28;20032;-84
2022/02/17 11:23:41;;;;;;;22.35;8.57;;;;;;;;;;5078556;28;20017;-84
2022/02/17 11:26:31;;;;;;;35.33;13.57;;;;;;;;;;5078502;28;20045;-84
2022/02/17 11:29:16;;;;;;;62.55;22.42;;;;;;;;;;5066235;28;20036;-84
2022/02/17 11:32:08;;;;;;;14.35;4.95;;;;;;;;;;5058473;28;20098;-83
2022/02/17 11:34:34;;;;;;;;;;;;;;;;;;5068009;28;20036;-83
2022/02/17 11:37:00;;;;;;;12.32;4.75;;;;;;;;;;5078018;28;20325;-83
2022/02/17 11:39:46;;;;;;;15.95;7.10;;;;;;;;;;5063799;28;20095;-83
2022/02/17 11:42:12;;;;;;;15.63;6.30;;;;;;;;;;5072755;28;20028;-83
2022/02/17 11:44:38;;;;;;;22.08;8.57;;;;;;;;;;5060957;28;20025;-83
2022/02/17 11:47:06;;;;;;;18.20;5.20;;;;;;;;;;5058270;28;20099;-84
2022/02/17 11:49:35;;;;;;;15.48;7.57;;;;;;;;;;5056881;28;20021;-84
2022/02/17 11:52:16;;;;;;;15.55;7.75;;;;;;;;;;5058181;28;20035;-84
2022/02/17 11:54:44;;;;;;;18.98;9.18;;;;;;;;;;5058036;28;20044;-84
2022/02/17 11:57:29;;;;;;;11.52;6.05;;;;;;;;;;5057113;28;20366;-84
2022/02/17 12:00:15;;;;;;;7.90;4.75;;;;;;;;;;5058282;28;20116;-84
2022/02/17 12:02:41;;;;;;;11.82;6.30;;;;;;;;;;5057614;28;20033;-81
2022/02/17 12:05:14;;;;;;;10.57;5.18;;;;;;;;;;5057552;28;20431;-82
2022/02/17 12:07:41;;;;;;;11.15;6.50;;;;;;;;;;5057919;28;20044;-81
2022/02/17 12:10:26;;;;;;;6.18;4.65;;;;;;;;;;5057487;28;20045;-84
2022/02/17 12:12:53;;;;;;;10.77;6.72;;;;;;;;;;5058162;28;20053;-88
2022/02/17 12:15:20;;;;;;;13.45;7.43;;;;;;;;;;5058042;28;20088;-88
2022/02/17 12:17:46;;;;;;;9.73;5.22;;;;;;;;;;5057920;28;20023;-88
2022/02/17 12:20:13;;;;;;;9.13;4.78;;;;;;;;;;5057748;28;20025;-87
2022/02/17 12:22:49;;;;;;;12.02;5.60;;;;;;;;;;5057684;28;20029;-88
2022/02/17 12:25:16;;;;;;;22.10;6.15;;;;;;;;;;5056953;28;20526;-88
2022/02/17 12:27:47;;;;;;;10.10;5.70;;;;;;;;;;5057781;28;20045;-88
2022/02/17 12:30:21;;;;;;;18.20;10.88;;;;;;;;;;5057779;28;20033;-88
2022/02/17 12:32:47;;;;;;;11.82;5.22;;;;;;;;;;5057910;28;20029;-88
2022/02/17 12:35:24;;;;;;;7.50;4.20;;;;;;;;;;5056636;28;20021;-89
2022/02/17 12:38:11;;;;;;;12.52;6.20;;;;;;;;;;5056707;28;20044;-88
2022/02/17 12:40:37;;;;;;;12.02;6.50;;;;;;;;;;5057276;28;20053;-88
2022/02/17 12:43:04;;;;;;;13.63;6.30;;;;;;;;;;5057508;28;20047;-88
2022/02/17 12:45:33;;;;;;;11.73;3.75;;;;;;;;;;5056885;28;20135;-88
2022/02/17 12:48:00;;;;;;;8.77;4.90;;;;;;;;;;5057412;28;20296;-88
2022/02/17 12:50:26;;;;;;;12.68;4.32;;;;;;;;;;5057654;28;20021;-88
2022/02/17 12:52:52;;;;;;;10.77;5.10;;;;;;;;;;5056502;28;20024;-88
2022/02/17 12:55:18;;;;;;;10.43;5.30;;;;;;;;;;5057526;28;20017;-89
2022/02/17 12:57:54;;;;;;;11.02;4.50;;;;;;;;;;5057297;28;20024;-89
2022/02/17 13:00:20;;;;;;;8.50;3.80;;;;;;;;;;5057514;28;20021;-88
2022/02/17 13:02:48;;;;;;;15.43;4.18;;;;;;;;;;5056701;28;20033;-87
2022/02/17 13:05:14;;;;;;;15.15;4.40;;;;;;;;;;5057452;28;20022;-88
2022/02/17 13:07:40;;;;;;;9.30;3.83;;;;;;;;;;5057442;28;20025;-88
2022/02/17 13:10:07;;;;;;;9.88;3.75;;;;;;;;;;5057254;28;20431;-88
2022/02/17 13:12:33;;;;;;;9.50;5.18;;;;;;;;;;5056488;28;20445;-88
2022/02/17 13:15:00;;;;;;;17.50;5.43;;;;;;;;;;5057327;28;20052;-88
2022/02/17 13:17:32;;;;;;;14.77;6.20;;;;;;;;;;5056226;28;20056;-88
2022/02/17 13:19:58;;;;;;;10.77;5.77;;;;;;;;;;5057768;28;20033;-87
2022/02/17 13:22:24;;;;;;;17.27;4.80;;;;;;;;;;5057239;28;20280;-87
2022/02/17 13:24:55;;;;;;;10.18;4.53;;;;;;;;;;5057417;28;20018;-88
2022/02/17 13:27:21;;;;;;;8.90;4.60;;;;;;;;;;5056268;28;20378;-88
2022/02/17 13:29:54;;;;;;;11.23;6.60;;;;;;;;;;5056207;28;20021;-83
2022/02/17 13:32:21;;;;;;;33.15;18.40;;;;;;;;;;5057059;28;20311;-85
2022/02/17 13:34:47;;;;;;;10.77;5.65;;;;;;;;;;5056787;28;20116;-83
2022/02/17 13:37:13;;;;;;;21.50;4.18;;;;;;;;;;5056818;28;20040;-83
2022/02/17 13:39:39;;;;;;;9.88;3.72;;;;;;;;;;5056629;28;20039;-83
2022/02/17 13:42:13;;;;;;;10.18;6.13;;;;;;;;;;5056583;28;20029;-83
2022/02/17 13:44:40;;;;;;;12.38;4.25;;;;;;;;;;5056679;28;20335;-84
2022/02/17 13:47:10;;;;;;;9.80;3.55;;;;;;;;;;5056873;28;20036;-83
2022/02/17 13:49:37;;;;;;;14.27;6.90;;;;;;;;;;5055668;28;20395;-83
2022/02/17 13:52:04;;;;;;;8.65;5.38;;;;;;;;;;5056607;28;20404;-83
2022/02/17 13:55:08;;;;;;;9.18;3.67;;;;;;;;;;5056566;28;20321;-85
2022/02/17 13:57:34;;;;;;;8.32;4.20;;;;;;;;;;5016602;28;20037;-84
2022/02/17 14:00:09;;;;;;;8.75;4.60;;;;;;;;;;5018844;28;20021;-83
2022/02/17 14:02:35;;;;;;;5.45;3.42;;;;;;;;;;5018557;28;20337;-83
2022/02/17 14:05:07;;;;;;;12.13;5.00;;;;;;;;;;5018677;28;20096;-84
2022/02/17 14:07:36;;;;;;;11.40;5.50;;;;;;;;;;5001663;28;20073;-83
2022/02/17 14:10:07;;;;;;;10.57;3.90;;;;;;;;;;5001868;28;20317;-83
2022/02/17 14:12:33;;;;;;;5.15;3.28;;;;;;;;;;5001836;28;20072;-83
2022/02/17 14:15:03;;;;;;;11.80;3.40;;;;;;;;;;5018584;28;20096;-83
2022/02/17 14:17:29;;;;;;;3.70;2.45;;;;;;;;;;5018313;28;20389;-83
2022/02/17 14:19:55;;;;;;;4.57;2.63;;;;;;;;;;5001925;28;20404;-83
2022/02/17 14:22:22;;;;;;;5.88;2.72;;;;;;;;;;5001459;28;20050;-83
2022/02/17 14:24:48;;;;;;;3.92;2.40;;;;;;;;;;5001078;28;20025;-82
2022/02/17 14:27:14;;;;;;;6.97;3.47;;;;;;;;;;5020919;28;20075;-83
2022/02/17 14:29:40;;;;;;;5.43;3.10;;;;;;;;;;5059745;28;20025;-83
2022/02/17 14:32:07;;;;;;;4.20;2.80;;;;;;;;;;5059722;28;20033;-83
2022/02/17 14:35:09;;;;;;;5.18;2.70;;;;;;;;;;5059746;28;20033;-83
2022/02/17 14:37:25;;;;;;;10.05;3.67;;;;;;;;;;5059390;28;20413;-83